Sembawang Air Base

WSAG · 新加坡

罗盘
风向 的 风向 190° Sembawang Air Base 4/22
风: 4 kt, 2 beaufort

3 kt

2 kt
改变
0 ft 6.000 12.000 18.000 24.000 30.000
Cloud Cloud
FEW 1.800
Cloud Cloud Cloud Cloud Cloud Cloud
BKN 30.000
METAR WSSL 181800Z 19004KT 9999 FEW018 BKN300 28/25 Q1007

METAR Sembawang Air Base - WSAG

Sembawang Air Base是,新加坡中的中型机场。 该机场位于纬度1,42645和经度103,81395。 该机场有2条跑道: 4/22 和 5/23. 本场的ICAO机场代码为WSAG。 机场在Singapore FIR中。

该航空气象观测是针对實里達機場在2024年5月19日 02:00, 当地时间进行的。

机场观察

风向为190°,速度为4 kt。

可见度为10 km 或者更多。

有几云在1.800 ft的高度 和 碎云在30.000 ft的高度。 破损或更高的上限为30.000 ft。

温度和风寒是28 °C。 热指数为32。 露点为25 °C,相对湿度为84%。 海平面上的气压为1007 hPa (QNH)。

白天

今天,太阳从06:55升起,在19:06降落。 这适用于Sembawang Air Base,世界夏令时可能有所不同。 当地时间与世界标准时间之间的时差为+8 小时。 夏令时目前正在进行中。

公司介绍

我们没有关于这个机场的公司信息。

体会

到Vliegles.nl去找飞行课程,跳伞和其他飞行体验。 浏览页面,了解Sembawang Air Base附近所有可用的活动。 你也可以使用搜索功能来寻找你所在地附近的特定飞行课程、跳伞或其他飞行体验。

跑道

Id 标题 侧风 逆风 侧风 %
4/22 043°-223° 2 kt 3 kt 54 %
5/23 047°-227° 2 kt 3 kt 60 %

逆风成分最大的方向会被突出显示,并用于横风计算。 这并不一定意味着这个方向在使用。

乌云

1.800 ft FEW 几云
30.000 ft BKN 碎云

温度 & 天气

温度 28 °C
露点 25 °C
相对湿度 84%
热度指数 32 °C
Kp-index 0 (0-9)

白天

日出
06:55 (4:19)
中午
13:00
日落
19:06

小工具

你想在你的网站上有一个关于Sembawang Air Base的当前航空天气(METAR)的小部件吗?

显示HTML代码
报告变更